CXA007 CHB3-CYCB
Flight info
| Callsign | CXA007 |
|---|---|
| Flight time | N/A |
| Altitude | 2000 |
| Route | CB |
| Aircraft | EC35/L-SFG/G |
Departure
| Time | N/A |
|---|---|
| Airport | CHB3 |
Arrival
| Time | 2026-05-04 00:48 |
|---|---|
| Airport | Cambridge Bay Airport (CYCB) |
| Time | Latitude | Longitude | Altitude | Speed | Heading |
|---|---|---|---|---|---|
| 2026-05-03 23:40 | 68.16617 | -106.61231 | 166 ft | 0 kts | 281° |
| 2026-05-04 00:09 | 68.16578 | -106.61273 | 173 ft | 18 kts | 188° |
| 2026-05-04 00:10 | 68.16401 | -106.61356 | 179 ft | 35 kts | 171° |
| 2026-05-04 00:10 | 68.16139 | -106.61454 | 187 ft | 44 kts | 192° |
| 2026-05-04 00:10 | 68.15805 | -106.61634 | 185 ft | 54 kts | 188° |
| 2026-05-04 00:10 | 68.15469 | -106.61916 | 220 ft | 54 kts | 236° |
| 2026-05-04 00:11 | 68.15827 | -106.62757 | 417 ft | 80 kts | 352° |
| 2026-05-04 00:11 | 68.16456 | -106.62365 | 488 ft | 108 kts | 19° |
| 2026-05-04 00:11 | 68.17208 | -106.61698 | 697 ft | 111 kts | 22° |
| 2026-05-04 00:11 | 68.17862 | -106.60504 | 837 ft | 119 kts | 41° |
| 2026-05-04 00:12 | 68.18622 | -106.58855 | 294 ft | 163 kts | 39° |
| 2026-05-04 00:12 | 68.19450 | -106.56883 | 328 ft | 149 kts | 40° |
| 2026-05-04 00:12 | 68.20332 | -106.55587 | 475 ft | 139 kts | 29° |
| 2026-05-04 00:12 | 68.21130 | -106.54328 | 656 ft | 133 kts | 34° |
| 2026-05-04 00:13 | 68.21890 | -106.52853 | 774 ft | 132 kts | 38° |
| 2026-05-04 00:13 | 68.22652 | -106.51260 | 701 ft | 144 kts | 41° |
| 2026-05-04 00:13 | 68.23343 | -106.49689 | 1084 ft | 120 kts | 38° |
| 2026-05-04 00:13 | 68.23920 | -106.48586 | 1712 ft | 79 kts | 45° |
| 2026-05-04 00:14 | 68.24374 | -106.47438 | 1578 ft | 117 kts | 34° |
| 2026-05-04 00:14 | 68.25136 | -106.46382 | 1570 ft | 122 kts | 28° |
| 2026-05-04 00:14 | 68.25898 | -106.45414 | 1595 ft | 123 kts | 27° |
| 2026-05-04 00:14 | 68.26680 | -106.44445 | 1606 ft | 125 kts | 27° |
| 2026-05-04 00:15 | 68.27481 | -106.43457 | 1612 ft | 129 kts | 27° |
| 2026-05-04 00:15 | 68.28309 | -106.42430 | 1592 ft | 132 kts | 27° |
| 2026-05-04 00:15 | 68.29151 | -106.41381 | 1584 ft | 135 kts | 27° |
| 2026-05-04 00:15 | 68.30009 | -106.40308 | 1579 ft | 137 kts | 27° |
| 2026-05-04 00:16 | 68.30868 | -106.39231 | 1571 ft | 136 kts | 27° |
| 2026-05-04 00:16 | 68.31724 | -106.38130 | 1572 ft | 137 kts | 28° |
| 2026-05-04 00:16 | 68.32588 | -106.36942 | 1561 ft | 140 kts | 29° |
| 2026-05-04 00:16 | 68.33433 | -106.35744 | 1725 ft | 132 kts | 30° |
| 2026-05-04 00:17 | 68.34219 | -106.34643 | 1964 ft | 122 kts | 30° |
| 2026-05-04 00:17 | 68.34943 | -106.33653 | 2216 ft | 112 kts | 30° |
| 2026-05-04 00:17 | 68.35625 | -106.32742 | 2460 ft | 110 kts | 31° |
| 2026-05-04 00:17 | 68.36340 | -106.31792 | 2572 ft | 120 kts | 31° |
| 2026-05-04 00:18 | 68.37123 | -106.30731 | 2598 ft | 130 kts | 31° |
| 2026-05-04 00:18 | 68.37950 | -106.29598 | 2588 ft | 136 kts | 31° |
| 2026-05-04 00:18 | 68.38802 | -106.28427 | 2585 ft | 137 kts | 31° |
| 2026-05-04 00:18 | 68.39650 | -106.27252 | 2588 ft | 136 kts | 31° |
| 2026-05-04 00:19 | 68.40476 | -106.26086 | 2599 ft | 132 kts | 32° |
| 2026-05-04 00:19 | 68.41292 | -106.24906 | 2575 ft | 134 kts | 32° |
| 2026-05-04 00:19 | 68.41935 | -106.23200 | 2559 ft | 132 kts | 68° |
| 2026-05-04 00:19 | 68.42284 | -106.20621 | 1867 ft | 165 kts | 73° |
| 2026-05-04 00:20 | 68.42749 | -106.18041 | 1820 ft | 145 kts | 45° |
| 2026-05-04 00:20 | 68.43611 | -106.16807 | 1475 ft | 143 kts | 18° |
| 2026-05-04 00:20 | 68.44560 | -106.15981 | 1174 ft | 138 kts | 22° |
| 2026-05-04 00:20 | 68.45407 | -106.15111 | 1095 ft | 124 kts | 17° |
| 2026-05-04 00:21 | 68.46163 | -106.14419 | 1045 ft | 102 kts | 29° |
| 2026-05-04 00:21 | 68.46784 | -106.13551 | 1045 ft | 103 kts | 30° |
| 2026-05-04 00:21 | 68.47451 | -106.12604 | 1004 ft | 111 kts | 30° |
| 2026-05-04 00:21 | 68.48110 | -106.11572 | 958 ft | 111 kts | 34° |
| 2026-05-04 00:22 | 68.48823 | -106.10411 | 852 ft | 121 kts | 28° |
| 2026-05-04 00:22 | 68.49525 | -106.09333 | 572 ft | 128 kts | 33° |
| 2026-05-04 00:22 | 68.50216 | -106.08237 | 598 ft | 104 kts | 33° |
| 2026-05-04 00:22 | 68.50793 | -106.07283 | 624 ft | 83 kts | 34° |
| 2026-05-04 00:23 | 68.51309 | -106.06932 | 598 ft | 72 kts | 7° |
| 2026-05-04 00:23 | 68.51749 | -106.06341 | 744 ft | 85 kts | 33° |
| 2026-05-04 00:23 | 68.52364 | -106.05408 | 793 ft | 113 kts | 30° |
| 2026-05-04 00:23 | 68.53031 | -106.04476 | 786 ft | 101 kts | 29° |
| 2026-05-04 00:24 | 68.53637 | -106.03706 | 802 ft | 93 kts | 27° |
| 2026-05-04 00:24 | 68.54225 | -106.02933 | 825 ft | 97 kts | 28° |
| 2026-05-04 00:24 | 68.54862 | -106.01977 | 798 ft | 111 kts | 31° |
| 2026-05-04 00:24 | 68.55546 | -106.00947 | 790 ft | 112 kts | 31° |
| 2026-05-04 00:25 | 68.56174 | -105.99961 | 833 ft | 98 kts | 31° |
| 2026-05-04 00:25 | 68.56747 | -105.99109 | 822 ft | 98 kts | 32° |
| 2026-05-04 00:25 | 68.57358 | -105.98210 | 835 ft | 95 kts | 29° |
| 2026-05-04 00:25 | 68.57985 | -105.97431 | 932 ft | 97 kts | 14° |
| 2026-05-04 00:26 | 68.58565 | -105.97154 | 1254 ft | 83 kts | 25° |
| 2026-05-04 00:26 | 68.59154 | -105.96350 | 1065 ft | 119 kts | 29° |
| 2026-05-04 00:26 | 68.59903 | -105.95286 | 904 ft | 118 kts | 29° |
| 2026-05-04 00:26 | 68.60556 | -105.94393 | 723 ft | 107 kts | 20° |
| 2026-05-04 00:27 | 68.61212 | -105.94202 | 747 ft | 95 kts | 10° |
| 2026-05-04 00:27 | 68.61785 | -105.93731 | 1041 ft | 87 kts | 37° |
| 2026-05-04 00:27 | 68.62368 | -105.92859 | 1109 ft | 103 kts | 30° |
| 2026-05-04 00:27 | 68.63047 | -105.91850 | 1155 ft | 118 kts | 32° |
| 2026-05-04 00:28 | 68.63803 | -105.90658 | 1147 ft | 131 kts | 32° |
| 2026-05-04 00:28 | 68.64588 | -105.90382 | 1401 ft | 114 kts | 1° |
| 2026-05-04 00:28 | 68.64992 | -105.90323 | 1552 ft | 105 kts | 11° |
| 2026-05-04 00:28 | 68.65188 | -105.90173 | 1418 ft | 119 kts | 22° |
| 2026-05-04 00:29 | 68.66020 | -105.88979 | 983 ft | 135 kts | 32° |
| 2026-05-04 00:29 | 68.66769 | -105.87622 | 1007 ft | 126 kts | 39° |
| 2026-05-04 00:29 | 68.67227 | -105.86757 | 1017 ft | 117 kts | 35° |
| 2026-05-04 00:29 | 68.67898 | -105.85602 | 1072 ft | 110 kts | 34° |
| 2026-05-04 00:30 | 68.68540 | -105.84532 | 1125 ft | 107 kts | 33° |
| 2026-05-04 00:30 | 68.69388 | -105.83136 | 1162 ft | 108 kts | 33° |
| 2026-05-04 00:30 | 68.69823 | -105.82420 | 1169 ft | 108 kts | 33° |
| 2026-05-04 00:30 | 68.70469 | -105.81357 | 1174 ft | 108 kts | 33° |
| 2026-05-04 00:31 | 68.71116 | -105.80293 | 1173 ft | 109 kts | 33° |
| 2026-05-04 00:31 | 68.71767 | -105.79224 | 1171 ft | 109 kts | 33° |
| 2026-05-04 00:31 | 68.72408 | -105.78189 | 1176 ft | 105 kts | 33° |
| 2026-05-04 00:31 | 68.73029 | -105.77194 | 1191 ft | 102 kts | 33° |
| 2026-05-04 00:32 | 68.73639 | -105.76221 | 1202 ft | 101 kts | 33° |
| 2026-05-04 00:32 | 68.74247 | -105.75245 | 1209 ft | 102 kts | 33° |
| 2026-05-04 00:32 | 68.74869 | -105.74236 | 1207 ft | 105 kts | 33° |
| 2026-05-04 00:32 | 68.75494 | -105.73227 | 1203 ft | 106 kts | 33° |
| 2026-05-04 00:33 | 68.76136 | -105.72182 | 1199 ft | 105 kts | 33° |
| 2026-05-04 00:33 | 68.77366 | -105.70137 | 1192 ft | 103 kts | 34° |
| 2026-05-04 00:33 | 68.77979 | -105.69108 | 1186 ft | 105 kts | 34° |
| 2026-05-04 00:34 | 68.78606 | -105.68055 | 1174 ft | 105 kts | 34° |
| 2026-05-04 00:34 | 68.79222 | -105.67023 | 1175 ft | 103 kts | 34° |
| 2026-05-04 00:34 | 68.79829 | -105.66005 | 1175 ft | 102 kts | 34° |
| 2026-05-04 00:34 | 68.80433 | -105.64997 | 1180 ft | 102 kts | 34° |
| 2026-05-04 00:35 | 68.81042 | -105.63980 | 1177 ft | 102 kts | 34° |
| 2026-05-04 00:35 | 68.81649 | -105.62959 | 1175 ft | 101 kts | 34° |
| 2026-05-04 00:35 | 68.82246 | -105.61962 | 1181 ft | 99 kts | 34° |
| 2026-05-04 00:35 | 68.82831 | -105.60990 | 1187 ft | 98 kts | 34° |
| 2026-05-04 00:36 | 68.83415 | -105.60006 | 1192 ft | 98 kts | 34° |
| 2026-05-04 00:36 | 68.83997 | -105.59021 | 1194 ft | 98 kts | 35° |
| 2026-05-04 00:36 | 68.84575 | -105.58045 | 1196 ft | 97 kts | 35° |
| 2026-05-04 00:36 | 68.85153 | -105.57071 | 1198 ft | 97 kts | 35° |
| 2026-05-04 00:37 | 68.85731 | -105.56110 | 1197 ft | 96 kts | 34° |
| 2026-05-04 00:37 | 68.86308 | -105.55167 | 1200 ft | 96 kts | 34° |
| 2026-05-04 00:37 | 68.86885 | -105.54230 | 1203 ft | 96 kts | 34° |
| 2026-05-04 00:37 | 68.87460 | -105.53294 | 1205 ft | 96 kts | 34° |
| 2026-05-04 00:38 | 68.88033 | -105.52363 | 1205 ft | 95 kts | 34° |
| 2026-05-04 00:38 | 68.88606 | -105.51434 | 1214 ft | 95 kts | 34° |
| 2026-05-04 00:38 | 68.89140 | -105.50581 | 1468 ft | 85 kts | 34° |
| 2026-05-04 00:38 | 68.89656 | -105.49761 | 1581 ft | 87 kts | 34° |
| 2026-05-04 00:39 | 68.90196 | -105.48909 | 1625 ft | 92 kts | 34° |
| 2026-05-04 00:39 | 68.90763 | -105.48014 | 1631 ft | 95 kts | 34° |
| 2026-05-04 00:39 | 68.91343 | -105.47092 | 1630 ft | 97 kts | 34° |
| 2026-05-04 00:39 | 68.91928 | -105.46157 | 1628 ft | 97 kts | 34° |
| 2026-05-04 00:40 | 68.92512 | -105.45177 | 1627 ft | 102 kts | 36° |
| 2026-05-04 00:40 | 68.93140 | -105.44047 | 1600 ft | 111 kts | 37° |
| 2026-05-04 00:40 | 68.93788 | -105.42850 | 1579 ft | 111 kts | 38° |
| 2026-05-04 00:40 | 68.94407 | -105.41660 | 1573 ft | 108 kts | 36° |
| 2026-05-04 00:41 | 68.95054 | -105.40592 | 1571 ft | 108 kts | 33° |
| 2026-05-04 00:41 | 68.95707 | -105.39544 | 1571 ft | 108 kts | 34° |
| 2026-05-04 00:41 | 68.96365 | -105.38543 | 1571 ft | 108 kts | 33° |
| 2026-05-04 00:41 | 68.97020 | -105.37546 | 1572 ft | 107 kts | 34° |
| 2026-05-04 00:42 | 68.97670 | -105.36550 | 1574 ft | 106 kts | 34° |
| 2026-05-04 00:42 | 68.98306 | -105.35571 | 1576 ft | 106 kts | 34° |
| 2026-05-04 00:42 | 68.98962 | -105.34551 | 1579 ft | 106 kts | 34° |
| 2026-05-04 00:42 | 68.99602 | -105.33552 | 1581 ft | 106 kts | 34° |
| 2026-05-04 00:43 | 69.00242 | -105.32552 | 1583 ft | 106 kts | 34° |
| 2026-05-04 00:43 | 69.00890 | -105.31506 | 1582 ft | 108 kts | 35° |
| 2026-05-04 00:43 | 69.01540 | -105.30438 | 1577 ft | 109 kts | 36° |
| 2026-05-04 00:43 | 69.02205 | -105.29346 | 1568 ft | 114 kts | 35° |
| 2026-05-04 00:44 | 69.02904 | -105.28208 | 1552 ft | 118 kts | 35° |
| 2026-05-04 00:44 | 69.03606 | -105.27048 | 1543 ft | 118 kts | 36° |
| 2026-05-04 00:44 | 69.04314 | -105.25865 | 1539 ft | 119 kts | 36° |
| 2026-05-04 00:44 | 69.05029 | -105.24658 | 1536 ft | 120 kts | 36° |
| 2026-05-04 00:45 | 69.05727 | -105.23462 | 1512 ft | 121 kts | 35° |
| 2026-05-04 00:45 | 69.06540 | -105.22726 | 1111 ft | 135 kts | 356° |
| 2026-05-04 00:45 | 69.07422 | -105.22497 | 751 ft | 118 kts | 35° |
| 2026-05-04 00:45 | 69.08037 | -105.21299 | 562 ft | 105 kts | 40° |
| 2026-05-04 00:46 | 69.08605 | -105.20073 | 471 ft | 100 kts | 44° |
| 2026-05-04 00:46 | 69.09124 | -105.18724 | 408 ft | 110 kts | 46° |
| 2026-05-04 00:46 | 69.09705 | -105.17237 | 302 ft | 113 kts | 45° |
| 2026-05-04 00:46 | 69.10248 | -105.15810 | 226 ft | 99 kts | 46° |
| 2026-05-04 00:47 | 69.10726 | -105.14579 | 270 ft | 88 kts | 46° |
| 2026-05-04 00:47 | 69.10991 | -105.13287 | 243 ft | 83 kts | 121° |
| 2026-05-04 00:47 | 69.10699 | -105.12158 | 272 ft | 75 kts | 65° |
| 2026-05-04 00:47 | 69.11202 | -105.11969 | 251 ft | 76 kts | 349° |
| 2026-05-04 00:48 | 69.11691 | -105.12251 | 207 ft | 51 kts | 27° |
| 2026-05-04 00:48 | 69.11623 | -105.11700 | 139 ft | 32 kts | 167° |
| 2026-05-04 00:48 | 69.11600 | -105.11901 | 149 ft | 5 kts | 311° |
| 2026-05-04 00:48 | 69.11624 | -105.11962 | 151 ft | 24 kts | 329° |
| 2026-05-04 00:49 | 69.11855 | -105.11160 | 202 ft | 78 kts | 83° |
| 2026-05-04 00:49 | 69.11927 | -105.09162 | 122 ft | 121 kts | 84° |
| 2026-05-04 00:49 | 69.12044 | -105.06880 | 127 ft | 83 kts | 82° |
| 2026-05-04 00:49 | 69.12100 | -105.06048 | 150 ft | 31 kts | 81° |
| 2026-05-04 00:50 | 69.12127 | -105.05412 | 145 ft | 40 kts | 88° |
| 2026-05-04 00:50 | 69.11999 | -105.04643 | 120 ft | 36 kts | 14° |
| 2026-05-04 00:50 | 69.12023 | -105.04119 | 126 ft | 24 kts | 299° |
| 2026-05-04 00:50 | 69.12114 | -105.03996 | 83 ft | 3 kts | 230° |
| 2026-05-04 00:51 | 69.12091 | -105.03986 | 36 ft | 4 kts | 239° |
| 2026-05-04 00:51 | 69.12017 | -105.04131 | 65 ft | 21 kts | 313° |
| 2026-05-04 00:51 | 69.12154 | -105.04437 | 123 ft | 46 kts | 259° |
| 2026-05-04 00:51 | 69.11831 | -105.04856 | 142 ft | 95 kts | 187° |
| 2026-05-04 00:52 | 69.11146 | -105.05536 | 170 ft | 117 kts | 218° |
| 2026-05-04 00:52 | 69.10841 | -105.07594 | 432 ft | 111 kts | 253° |
| 2026-05-04 00:52 | 69.10591 | -105.09690 | 485 ft | 115 kts | 237° |
| 2026-05-04 00:52 | 69.10122 | -105.11301 | 684 ft | 104 kts | 239° |
| 2026-05-04 00:53 | 69.10036 | -105.12543 | 53 ft | 15 kts | 4° |
| 2026-05-04 00:53 | 69.10019 | -105.12609 | 140 ft | 3 kts | 355° |
| 2026-05-04 00:53 | 69.10127 | -105.12576 | 311 ft | 25 kts | 357° |
| 2026-05-04 00:53 | 69.10242 | -105.13221 | 407 ft | 47 kts | 348° |
| 2026-05-04 00:54 | 69.10322 | -105.14059 | 572 ft | 37 kts | 337° |
| 2026-05-04 00:54 | 69.10418 | -105.14225 | 615 ft | 30 kts | 348° |
| 2026-05-04 00:54 | 69.10505 | -105.13725 | 503 ft | 31 kts | 36° |
| 2026-05-04 00:54 | 69.10550 | -105.13221 | 324 ft | 25 kts | 44° |
| 2026-05-04 00:55 | 69.10599 | -105.12951 | 208 ft | 11 kts | 46° |
| 2026-05-04 00:55 | 69.10627 | -105.12721 | 151 ft | 12 kts | 96° |
| 2026-05-04 00:55 | 69.10623 | -105.12606 | 87 ft | 4 kts | 114° |
| 2026-05-04 00:55 | 69.10615 | -105.12559 | 83 ft | 1 kts | 151° |
| 2026-05-04 00:56 | 69.10604 | -105.12540 | 75 ft | 5 kts | 165° |
| 2026-05-04 00:56 | 69.10602 | -105.12537 | 75 ft | 0 kts | 165° |
| 2026-05-04 00:56 | 69.10599 | -105.12542 | 72 ft | 0 kts | 165° |
| 2026-05-04 00:56 | 69.10599 | -105.12541 | 75 ft | 0 kts | 165° |